Urbano Santos, Brazil
Current Conditions -  °F | °C
As of 1:00 AM on Monday 22 Dec 2014 (Local Time) from SBSL Reporting Station
Clear Clear  
Wind Chill: 81°   Ceiling: Unl
Heat Index: 84°   Visibility: 6mi
Dew Point: 70°   Wind: 14mph
Humidity: 70%   Direction: 50°NE
Pressure: 29.85"   Gusts: NA
Location:  3.21°S, 43.4°W
Report Text: SBSL 220400Z 05012KT CAVOK 27/21 Q1011
Loading
Personal Weather Stations






























Interactive Weather Map New forecast layout! Learn more

10-Day Weather Forecast

Advertisements
Track Severe Weather on mobile